createdAt,value
2023-05-06T00:00:34.692Z,10.68
2023-05-06T00:01:34.685Z,10.67
2023-05-06T00:02:34.839Z,10.67
2023-05-06T00:03:34.833Z,10.68
2023-05-06T00:04:34.690Z,10.69
2023-05-06T00:05:34.681Z,10.72
2023-05-06T00:06:34.632Z,10.75
2023-05-06T00:07:34.613Z,10.77
2023-05-06T00:08:34.687Z,10.79
2023-05-06T00:09:34.630Z,10.83
2023-05-06T00:10:34.603Z,10.86
2023-05-06T00:11:34.641Z,10.88
2023-05-06T00:12:34.588Z,10.90
2023-05-06T00:13:34.583Z,10.90
2023-05-06T00:14:34.579Z,10.89
2023-05-06T00:15:34.552Z,10.88
2023-05-06T00:16:34.570Z,10.87
2023-05-06T00:17:34.578Z,10.85
2023-05-06T00:18:34.512Z,10.84
2023-05-06T00:19:34.508Z,10.83
2023-05-06T00:20:34.481Z,10.82
2023-05-06T00:21:34.498Z,10.82
2023-05-06T00:22:34.498Z,10.80
2023-05-06T00:23:34.459Z,10.79
2023-05-06T00:24:34.467Z,10.76
2023-05-06T00:25:34.443Z,10.74
2023-05-06T00:26:34.426Z,10.71
2023-05-06T00:27:34.448Z,10.67
2023-05-06T00:28:34.434Z,10.63
2023-05-06T00:29:34.394Z,10.59
2023-05-06T00:30:34.425Z,10.55
2023-05-06T00:31:34.457Z,10.52
2023-05-06T00:32:34.409Z,10.51
2023-05-06T00:33:34.427Z,10.49
2023-05-06T00:34:34.347Z,10.46
2023-05-06T00:35:34.350Z,10.43
2023-05-06T00:36:34.339Z,10.40
2023-05-06T00:37:34.333Z,10.37
2023-05-06T00:38:34.302Z,10.35
2023-05-06T00:39:34.389Z,10.33
2023-05-06T00:40:34.319Z,10.33
2023-05-06T00:41:34.291Z,10.32
2023-05-06T00:42:34.278Z,10.33
2023-05-06T00:43:34.258Z,10.35
2023-05-06T00:44:34.274Z,10.36
2023-05-06T00:45:34.337Z,10.37
2023-05-06T00:46:34.260Z,10.37
2023-05-06T00:47:34.263Z,10.37
2023-05-06T00:48:34.212Z,10.36
2023-05-06T00:49:34.202Z,10.35
2023-05-06T00:50:34.242Z,10.33
2023-05-06T00:51:34.176Z,10.32
2023-05-06T00:52:34.169Z,10.29
2023-05-06T00:53:34.200Z,10.27
2023-05-06T00:54:34.157Z,10.24
2023-05-06T00:55:34.143Z,10.22
2023-05-06T00:56:34.133Z,10.20
2023-05-06T00:57:34.117Z,10.18
2023-05-06T00:58:34.120Z,10.16
2023-05-06T00:59:34.120Z,10.14
2023-05-06T01:00:34.082Z,10.12
2023-05-06T01:01:34.150Z,10.10
2023-05-06T01:02:43.761Z,10.10
2023-05-06T01:03:34.122Z,10.11
2023-05-06T01:04:34.169Z,10.13
2023-05-06T01:05:34.045Z,10.15
2023-05-06T01:06:34.020Z,10.19
2023-05-06T01:07:34.031Z,10.22
2023-05-06T01:08:34.020Z,10.25
2023-05-06T01:09:34.035Z,10.27
2023-05-06T01:10:33.989Z,10.29
2023-05-06T01:11:33.988Z,10.30
2023-05-06T01:12:34.037Z,10.31
2023-05-06T01:13:33.963Z,10.31
2023-05-06T01:14:33.968Z,10.30
2023-05-06T01:15:33.947Z,10.28
2023-05-06T01:16:33.943Z,10.27
2023-05-06T01:17:33.966Z,10.27
2023-05-06T01:18:33.921Z,10.25
2023-05-06T01:19:33.902Z,10.24
2023-05-06T01:20:33.905Z,10.24
2023-05-06T01:21:33.909Z,10.24
2023-05-06T01:22:33.865Z,10.24
2023-05-06T01:23:34.033Z,10.24
2023-05-06T01:24:33.851Z,10.24
2023-05-06T01:25:33.850Z,10.25
2023-05-06T01:26:33.847Z,10.25
2023-05-06T01:27:33.849Z,10.26
2023-05-06T01:28:33.822Z,10.25
2023-05-06T01:29:33.810Z,10.24
2023-05-06T01:30:33.788Z,10.23
2023-05-06T01:31:33.901Z,10.22
2023-05-06T01:32:33.892Z,10.21
2023-05-06T01:33:33.765Z,10.19
2023-05-06T01:34:33.754Z,10.18
2023-05-06T01:35:33.762Z,10.17
2023-05-06T01:36:33.783Z,10.17
2023-05-06T01:37:33.739Z,10.16
2023-05-06T01:38:33.713Z,10.17
2023-05-06T01:39:33.810Z,10.17
2023-05-06T01:40:33.695Z,10.18
2023-05-06T01:41:33.709Z,10.18
2023-05-06T01:42:33.763Z,10.18
2023-05-06T01:43:33.665Z,10.18
2023-05-06T01:44:33.666Z,10.18
2023-05-06T01:45:33.701Z,10.18
2023-05-06T01:46:33.663Z,10.17
2023-05-06T01:47:33.679Z,10.17
2023-05-06T01:48:33.651Z,10.17
2023-05-06T01:49:33.620Z,10.17
2023-05-06T01:50:33.591Z,10.17
2023-05-06T01:51:33.701Z,10.16
2023-05-06T01:52:33.577Z,10.15
2023-05-06T01:53:33.587Z,10.14
2023-05-06T01:54:33.590Z,10.12
2023-05-06T01:55:33.546Z,10.11
2023-05-06T01:56:33.528Z,10.09
2023-05-06T01:57:33.542Z,10.08
2023-05-06T01:58:33.511Z,10.06
2023-05-06T01:59:33.533Z,10.05
2023-05-06T02:00:33.537Z,10.04
2023-05-06T02:01:33.530Z,10.02
2023-05-06T02:02:33.526Z,10.01
2023-05-06T02:03:33.632Z,10.00
2023-05-06T02:04:33.470Z,9.99
2023-05-06T02:05:33.455Z,9.97
2023-05-06T02:06:33.455Z,9.95
2023-05-06T02:07:33.434Z,9.93
2023-05-06T02:08:33.412Z,9.92
2023-05-06T02:09:33.422Z,9.91
2023-05-06T02:10:33.463Z,9.91
2023-05-06T02:11:33.388Z,9.91
2023-05-06T02:12:33.385Z,9.91
2023-05-06T02:13:33.422Z,9.90
2023-05-06T02:14:33.350Z,9.90
2023-05-06T02:15:33.361Z,9.89
2023-05-06T02:16:33.410Z,9.90
2023-05-06T02:17:33.395Z,9.90
2023-05-06T02:18:33.321Z,9.89
2023-05-06T02:19:33.362Z,9.88
2023-05-06T02:20:33.307Z,9.88
2023-05-06T02:21:33.282Z,9.89
2023-05-06T02:22:33.328Z,9.89
2023-05-06T02:23:33.289Z,9.90
2023-05-06T02:24:33.269Z,9.91
2023-05-06T02:25:33.270Z,9.92
2023-05-06T02:26:33.224Z,9.92
2023-05-06T02:27:33.222Z,9.91
2023-05-06T02:28:33.321Z,9.91
2023-05-06T02:29:33.216Z,9.90
2023-05-06T02:30:33.216Z,9.90
2023-05-06T02:31:33.293Z,9.89
2023-05-06T02:32:33.205Z,9.89
2023-05-06T02:33:33.184Z,9.89
2023-05-06T02:34:33.201Z,9.89
2023-05-06T02:35:33.157Z,9.88
2023-05-06T02:36:33.160Z,9.86
2023-05-06T02:37:33.180Z,9.84
2023-05-06T02:38:33.110Z,9.81
2023-05-06T02:39:33.153Z,9.78
2023-05-06T02:40:33.130Z,9.76
2023-05-06T02:41:33.085Z,9.74
2023-05-06T02:42:33.143Z,9.72
2023-05-06T02:43:33.163Z,9.70
2023-05-06T02:44:33.050Z,9.69
2023-05-06T02:45:33.058Z,9.68
2023-05-06T02:46:33.074Z,9.68
2023-05-06T02:47:33.102Z,9.67
2023-05-06T02:48:33.012Z,9.66
2023-05-06T02:49:33.035Z,9.67
2023-05-06T02:50:32.990Z,9.68
2023-05-06T02:51:33.037Z,9.70
2023-05-06T02:52:33.045Z,9.70
2023-05-06T02:53:32.968Z,9.71
2023-05-06T02:54:32.981Z,9.71
2023-05-06T02:55:33.044Z,9.70
2023-05-06T02:56:32.932Z,9.68
2023-05-06T02:57:32.929Z,9.65
2023-05-06T02:58:32.947Z,9.62
2023-05-06T02:59:32.912Z,9.60
2023-05-06T03:00:32.916Z,9.58
2023-05-06T03:01:33.110Z,9.56
2023-05-06T03:02:33.656Z,9.55
2023-05-06T03:03:32.867Z,9.54
2023-05-06T03:04:33.086Z,9.54
2023-05-06T03:05:32.849Z,9.55
2023-05-06T03:06:32.826Z,9.55
2023-05-06T03:07:32.908Z,9.54
2023-05-06T03:08:32.812Z,9.54
2023-05-06T03:09:32.802Z,9.55
2023-05-06T03:10:32.806Z,9.56
2023-05-06T03:11:32.800Z,9.55
2023-05-06T03:12:32.849Z,9.54
2023-05-06T03:13:32.805Z,9.52
2023-05-06T03:14:32.749Z,9.50
2023-05-06T03:15:32.778Z,9.49
2023-05-06T03:16:32.767Z,9.48
2023-05-06T03:17:32.746Z,9.47
2023-05-06T03:18:32.732Z,9.47
2023-05-06T03:19:32.761Z,9.47
2023-05-06T03:20:32.646Z,9.45
2023-05-06T03:21:32.700Z,9.41
2023-05-06T03:22:32.718Z,9.38
2023-05-06T03:23:32.630Z,9.35
2023-05-06T03:24:32.600Z,9.33
2023-05-06T03:25:32.587Z,9.31
2023-05-06T03:26:32.585Z,9.30
2023-05-06T03:27:32.592Z,9.30
2023-05-06T03:28:32.562Z,9.29
2023-05-06T03:29:32.551Z,9.29
2023-05-06T03:30:32.534Z,9.28
2023-05-06T03:31:32.576Z,9.28
2023-05-06T03:32:32.564Z,9.29
2023-05-06T03:33:32.529Z,9.30
2023-05-06T03:34:32.495Z,9.31
2023-05-06T03:35:32.486Z,9.32
2023-05-06T03:36:32.489Z,9.32
2023-05-06T03:37:32.496Z,9.33
2023-05-06T03:38:32.487Z,9.34
2023-05-06T03:39:32.445Z,9.34
2023-05-06T03:40:32.436Z,9.34
2023-05-06T03:41:32.457Z,9.34
2023-05-06T03:42:32.488Z,9.35
2023-05-06T03:43:32.454Z,9.36
2023-05-06T03:44:32.402Z,9.38
2023-05-06T03:45:32.392Z,9.39
2023-05-06T03:46:32.470Z,9.40
2023-05-06T03:47:32.453Z,9.39
2023-05-06T03:48:32.366Z,9.38
2023-05-06T03:49:32.383Z,9.36
2023-05-06T03:50:32.389Z,9.35
2023-05-06T03:51:32.380Z,9.34
2023-05-06T03:52:32.322Z,9.33
2023-05-06T03:53:32.371Z,9.33
2023-05-06T03:54:32.317Z,9.33
2023-05-06T03:55:32.627Z,9.33
2023-05-06T03:56:32.487Z,9.34
2023-05-06T03:57:32.679Z,9.35
2023-05-06T03:58:32.283Z,9.37
2023-05-06T03:59:32.267Z,9.38
2023-05-06T04:00:32.278Z,9.38
2023-05-06T04:01:32.225Z,9.37
2023-05-06T04:02:32.332Z,9.37
2023-05-06T04:03:32.355Z,9.36
2023-05-06T04:04:32.199Z,9.36
2023-05-06T04:05:32.214Z,9.35
2023-05-06T04:06:32.203Z,9.34
2023-05-06T04:07:32.164Z,9.33
2023-05-06T04:08:32.160Z,9.33
2023-05-06T04:09:32.146Z,9.32
2023-05-06T04:10:32.141Z,9.33
2023-05-06T04:11:32.143Z,9.34
2023-05-06T04:12:32.130Z,9.37
2023-05-06T04:13:32.100Z,9.40
2023-05-06T04:14:32.120Z,9.43
2023-05-06T04:15:32.096Z,9.46
2023-05-06T04:16:32.105Z,9.48
2023-05-06T04:17:32.097Z,9.50
2023-05-06T04:18:32.055Z,9.52
2023-05-06T04:19:32.043Z,9.54
2023-05-06T04:20:32.057Z,9.56
2023-05-06T04:21:32.023Z,9.59
2023-05-06T04:22:32.020Z,9.61
2023-05-06T04:23:32.017Z,9.64
2023-05-06T04:24:31.994Z,9.66
2023-05-06T04:25:31.984Z,9.69
2023-05-06T04:26:31.971Z,9.71
2023-05-06T04:27:31.961Z,9.73
2023-05-06T04:28:31.964Z,9.76
2023-05-06T04:29:31.978Z,9.78
2023-05-06T04:30:31.935Z,9.80
2023-05-06T04:31:32.009Z,9.82
2023-05-06T04:32:31.947Z,9.85
2023-05-06T04:33:31.918Z,9.88
2023-05-06T04:34:31.905Z,9.90
2023-05-06T04:35:31.888Z,9.93
2023-05-06T04:36:31.879Z,9.95
2023-05-06T04:37:31.883Z,9.96
2023-05-06T04:38:31.881Z,9.98
2023-05-06T04:39:31.845Z,9.99
2023-05-06T04:40:31.857Z,10.00
2023-05-06T04:41:31.854Z,10.00
2023-05-06T04:42:31.821Z,10.00
2023-05-06T04:43:31.824Z,10.01
2023-05-06T04:44:31.807Z,10.02
2023-05-06T04:45:31.800Z,10.03
2023-05-06T04:46:31.784Z,10.04
2023-05-06T04:47:31.828Z,10.05
2023-05-06T04:48:31.791Z,10.06
2023-05-06T04:49:31.766Z,10.07
2023-05-06T04:50:31.777Z,10.08
2023-05-06T04:51:31.752Z,10.09
2023-05-06T04:52:31.715Z,10.10
2023-05-06T04:53:31.708Z,10.12
2023-05-06T04:54:31.702Z,10.14
2023-05-06T04:55:31.708Z,10.17
2023-05-06T04:56:31.689Z,10.19
2023-05-06T04:57:31.693Z,10.22
2023-05-06T04:58:31.662Z,10.24
2023-05-06T04:59:31.648Z,10.26
2023-05-06T05:00:31.654Z,10.29
2023-05-06T05:01:31.715Z,10.31
2023-05-06T05:02:31.711Z,10.34
2023-05-06T05:03:31.791Z,10.38
2023-05-06T05:04:31.631Z,10.42
2023-05-06T05:05:31.598Z,10.46
2023-05-06T05:06:31.608Z,10.50
2023-05-06T05:07:31.585Z,10.54
2023-05-06T05:08:31.592Z,10.58
2023-05-06T05:09:31.553Z,10.62
2023-05-06T05:10:31.561Z,10.67
2023-05-06T05:11:31.531Z,10.72
2023-05-06T05:12:31.523Z,10.77
2023-05-06T05:13:31.511Z,10.82
2023-05-06T05:14:31.507Z,10.86
2023-05-06T05:15:31.499Z,10.91
2023-05-06T05:16:31.547Z,10.96
2023-05-06T05:17:31.508Z,11.00
2023-05-06T05:18:31.485Z,11.04
2023-05-06T05:19:31.467Z,11.07
2023-05-06T05:20:31.471Z,11.10
2023-05-06T05:21:31.473Z,11.14
2023-05-06T05:22:31.581Z,11.18
2023-05-06T05:23:31.423Z,11.22
2023-05-06T05:24:31.440Z,11.25
2023-05-06T05:25:31.427Z,11.29
2023-05-06T05:26:31.391Z,11.32
2023-05-06T05:27:31.375Z,11.34
2023-05-06T05:28:31.385Z,11.37
2023-05-06T05:29:31.352Z,11.39
2023-05-06T05:30:31.357Z,11.41
2023-05-06T05:31:31.557Z,11.44
2023-05-06T05:32:31.400Z,11.47
2023-05-06T05:33:31.403Z,11.49
2023-05-06T05:34:31.302Z,11.52
2023-05-06T05:35:31.321Z,11.56
2023-05-06T05:36:31.302Z,11.60
2023-05-06T05:37:31.439Z,11.65
2023-05-06T05:38:31.276Z,11.70
2023-05-06T05:39:31.311Z,11.73
2023-05-06T05:40:31.295Z,11.75
2023-05-06T05:41:31.286Z,11.76
2023-05-06T05:42:31.238Z,11.76
2023-05-06T05:43:31.208Z,11.76
2023-05-06T05:44:31.233Z,11.75
2023-05-06T05:45:31.222Z,11.74
2023-05-06T05:46:31.270Z,11.74
2023-05-06T05:47:31.209Z,11.74
2023-05-06T05:48:31.179Z,11.74
2023-05-06T05:49:31.174Z,11.74
2023-05-06T05:50:31.138Z,11.73
2023-05-06T05:51:31.156Z,11.70
2023-05-06T05:52:31.119Z,11.68
2023-05-06T05:53:31.150Z,11.68
2023-05-06T05:54:31.161Z,11.69
2023-05-06T05:55:31.164Z,11.72
2023-05-06T05:56:31.134Z,11.76
2023-05-06T05:57:31.090Z,11.82
2023-05-06T05:58:31.056Z,11.91
2023-05-06T05:59:31.070Z,11.97
2023-05-06T06:00:31.074Z,11.98
2023-05-06T06:01:31.056Z,11.98
2023-05-06T06:02:31.118Z,12.00
2023-05-06T06:03:31.256Z,12.02
2023-05-06T06:04:31.034Z,12.01
2023-05-06T06:05:30.990Z,12.01
2023-05-06T06:06:31.056Z,12.01
2023-05-06T06:07:30.980Z,11.99
2023-05-06T06:08:30.984Z,11.96
2023-05-06T06:09:30.958Z,11.96
2023-05-06T06:10:30.979Z,11.97
2023-05-06T06:11:30.938Z,12.00
2023-05-06T06:12:30.912Z,12.04
2023-05-06T06:13:31.054Z,12.06
2023-05-06T06:14:30.951Z,12.08
2023-05-06T06:15:30.881Z,12.11
2023-05-06T06:16:30.924Z,12.15
2023-05-06T06:17:30.908Z,12.18
2023-05-06T06:18:30.857Z,12.24
2023-05-06T06:19:30.861Z,12.33
2023-05-06T06:20:30.853Z,12.43
2023-05-06T06:21:30.823Z,12.54
2023-05-06T06:22:30.820Z,12.66
2023-05-06T06:23:30.904Z,12.74
2023-05-06T06:24:30.803Z,12.77
2023-05-06T06:25:30.815Z,12.77
2023-05-06T06:26:30.804Z,12.77
2023-05-06T06:27:30.769Z,12.78
2023-05-06T06:28:30.761Z,12.83
2023-05-06T06:29:30.743Z,12.88
2023-05-06T06:30:30.744Z,12.90
2023-05-06T06:31:30.767Z,12.92
2023-05-06T06:32:30.764Z,12.94
2023-05-06T06:33:30.740Z,12.97
2023-05-06T06:34:30.694Z,12.99
2023-05-06T06:35:30.706Z,12.98
2023-05-06T06:36:30.703Z,12.92
2023-05-06T06:37:30.698Z,12.85
2023-05-06T06:38:30.717Z,12.78
2023-05-06T06:39:30.658Z,12.72
2023-05-06T06:40:30.675Z,12.65
2023-05-06T06:41:30.655Z,12.62
2023-05-06T06:42:30.628Z,12.61
2023-05-06T06:43:30.618Z,12.60
2023-05-06T06:44:30.599Z,12.58
2023-05-06T06:45:30.694Z,12.58
2023-05-06T06:46:30.594Z,12.58
2023-05-06T06:47:30.606Z,12.55
2023-05-06T06:48:30.582Z,12.51
2023-05-06T06:49:30.560Z,12.53
2023-05-06T06:50:30.538Z,12.60
2023-05-06T06:51:30.528Z,12.68
2023-05-06T06:52:30.511Z,12.72
2023-05-06T06:53:30.524Z,12.76
2023-05-06T06:54:30.581Z,12.80
2023-05-06T06:55:30.485Z,12.84
2023-05-06T06:56:30.477Z,12.84
2023-05-06T06:57:30.466Z,12.81
2023-05-06T06:58:30.478Z,12.80
2023-05-06T06:59:30.434Z,12.83
2023-05-06T07:00:30.456Z,12.90
2023-05-06T07:01:30.497Z,12.98
2023-05-06T07:02:30.453Z,13.02
2023-05-06T07:03:30.414Z,13.04
2023-05-06T07:04:30.417Z,13.08
2023-05-06T07:05:30.381Z,13.17
2023-05-06T07:06:30.399Z,13.25
2023-05-06T07:07:30.394Z,13.26
2023-05-06T07:08:30.380Z,13.20
2023-05-06T07:09:30.343Z,13.17
2023-05-06T07:10:30.357Z,13.27
2023-05-06T07:11:30.354Z,13.42
2023-05-06T07:12:30.307Z,13.54
2023-05-06T07:13:30.326Z,13.57
2023-05-06T07:14:30.298Z,13.56
2023-05-06T07:15:30.288Z,13.55
2023-05-06T07:16:30.320Z,13.53
2023-05-06T07:17:30.255Z,13.51
2023-05-06T07:18:30.254Z,13.53
2023-05-06T07:19:30.287Z,13.59
2023-05-06T07:20:30.276Z,13.60
2023-05-06T07:21:30.229Z,13.57
2023-05-06T07:22:30.243Z,13.60
2023-05-06T07:23:32.037Z,13.70
2023-05-06T07:24:30.187Z,13.83
2023-05-06T07:25:30.194Z,13.98
2023-05-06T07:26:30.188Z,14.14
2023-05-06T07:27:30.164Z,14.29
2023-05-06T07:28:30.160Z,14.33
2023-05-06T07:29:30.147Z,14.29
2023-05-06T07:30:30.146Z,14.26
2023-05-06T07:31:30.183Z,14.28
2023-05-06T07:32:30.184Z,14.33
2023-05-06T07:33:30.129Z,14.35
2023-05-06T07:34:30.086Z,14.35
2023-05-06T07:35:30.076Z,14.34
2023-05-06T07:36:30.079Z,14.33
2023-05-06T07:37:30.057Z,14.39
2023-05-06T07:38:30.046Z,14.51
2023-05-06T07:39:30.044Z,14.59
2023-05-06T07:40:30.028Z,14.59
2023-05-06T07:41:30.039Z,14.52
2023-05-06T07:42:30.018Z,14.38
2023-05-06T07:43:30.040Z,14.37
2023-05-06T07:44:30.027Z,14.44
2023-05-06T07:45:30.032Z,14.43
2023-05-06T07:46:30.087Z,14.33
2023-05-06T07:47:30.015Z,14.22
2023-05-06T07:48:30.000Z,14.18
2023-05-06T07:49:29.934Z,14.27
2023-05-06T07:50:29.928Z,14.44
2023-05-06T07:51:29.956Z,14.65
2023-05-06T07:52:29.910Z,14.88
2023-05-06T07:53:29.934Z,15.07
2023-05-06T07:54:29.884Z,15.25
2023-05-06T07:55:29.883Z,15.37
2023-05-06T07:56:29.876Z,15.35
2023-05-06T07:57:30.706Z,15.28
2023-05-06T07:58:29.856Z,15.20
2023-05-06T07:59:29.868Z,15.11
2023-05-06T08:00:29.892Z,15.09
2023-05-06T08:01:29.861Z,15.11
2023-05-06T08:02:29.982Z,15.11
2023-05-06T08:03:30.038Z,15.08
2023-05-06T08:04:29.893Z,14.95
2023-05-06T08:05:29.845Z,14.74
2023-05-06T08:06:29.782Z,14.58
2023-05-06T08:07:29.763Z,14.50
2023-05-06T08:08:30.836Z,14.46
2023-05-06T08:09:29.809Z,14.41
2023-05-06T08:10:29.751Z,14.37
2023-05-06T08:11:29.753Z,14.35
2023-05-06T08:12:29.729Z,14.32
2023-05-06T08:13:29.713Z,14.26
2023-05-06T08:14:29.767Z,14.23
2023-05-06T08:15:29.684Z,14.26
2023-05-06T08:16:29.756Z,14.36
2023-05-06T08:17:29.795Z,14.48
2023-05-06T08:18:29.697Z,14.57
2023-05-06T08:19:29.686Z,14.64
2023-05-06T08:20:29.644Z,14.72
2023-05-06T08:21:29.655Z,14.76
2023-05-06T08:22:29.633Z,14.75
2023-05-06T08:23:29.673Z,14.70
2023-05-06T08:24:29.615Z,14.63
2023-05-06T08:25:29.612Z,14.60
2023-05-06T08:26:29.593Z,14.59
2023-05-06T08:27:29.585Z,14.60
2023-05-06T08:28:29.593Z,14.63
2023-05-06T08:29:29.542Z,14.70
2023-05-06T08:30:29.529Z,14.75
2023-05-06T08:31:29.558Z,14.79
2023-05-06T08:32:29.561Z,14.81
2023-05-06T08:33:29.570Z,14.80
2023-05-06T08:34:29.501Z,14.79
2023-05-06T08:35:29.512Z,14.77
2023-05-06T08:36:29.477Z,14.69
2023-05-06T08:37:29.500Z,14.58
2023-05-06T08:38:29.489Z,14.56
2023-05-06T08:39:29.484Z,14.68
2023-05-06T08:40:29.431Z,14.87
2023-05-06T08:41:29.429Z,15.05
2023-05-06T08:42:29.422Z,15.12
2023-05-06T08:43:29.419Z,15.08
2023-05-06T08:44:29.427Z,14.98
2023-05-06T08:45:29.739Z,14.84
2023-05-06T08:46:29.395Z,14.73
2023-05-06T08:47:29.404Z,14.68
2023-05-06T08:48:29.341Z,14.74
2023-05-06T08:49:29.352Z,14.90
2023-05-06T08:50:29.356Z,15.12
2023-05-06T08:51:29.323Z,15.35
2023-05-06T08:52:29.317Z,15.59
2023-05-06T08:53:29.334Z,15.83
2023-05-06T08:54:29.301Z,16.00
2023-05-06T08:55:29.305Z,16.08
2023-05-06T08:56:29.310Z,16.10
2023-05-06T08:57:29.272Z,16.06
2023-05-06T08:58:29.242Z,16.06
2023-05-06T08:59:29.261Z,16.11
2023-05-06T09:00:29.241Z,16.16
2023-05-06T09:01:29.286Z,16.23
2023-05-06T09:02:29.306Z,16.32
2023-05-06T09:03:29.284Z,16.39
2023-05-06T09:04:29.223Z,16.44
2023-05-06T09:05:29.206Z,16.44
2023-05-06T09:06:29.195Z,16.32
2023-05-06T09:07:29.234Z,16.18
2023-05-06T09:08:29.164Z,16.12
2023-05-06T09:09:29.206Z,16.12
2023-05-06T09:10:29.138Z,16.07
2023-05-06T09:11:29.184Z,15.99
2023-05-06T09:12:29.176Z,15.98
2023-05-06T09:13:29.114Z,16.03
2023-05-06T09:14:29.104Z,16.13
2023-05-06T09:15:29.075Z,16.18
2023-05-06T09:16:29.164Z,16.15
2023-05-06T09:17:29.096Z,16.08
2023-05-06T09:18:29.044Z,15.99
2023-05-06T09:19:29.181Z,15.93
2023-05-06T09:20:29.739Z,15.99
2023-05-06T09:21:29.012Z,16.17
2023-05-06T09:22:29.022Z,16.29
2023-05-06T09:23:29.057Z,16.28
2023-05-06T09:24:29.069Z,16.18
2023-05-06T09:25:29.010Z,16.12
2023-05-06T09:26:29.647Z,16.24
2023-05-06T09:27:28.951Z,16.39
2023-05-06T09:28:28.993Z,16.35
2023-05-06T09:29:28.997Z,16.21
2023-05-06T09:30:28.931Z,16.19
2023-05-06T09:31:29.050Z,16.15
2023-05-06T09:32:28.991Z,16.03
2023-05-06T09:33:28.910Z,15.94
2023-05-06T09:34:28.977Z,15.98
2023-05-06T09:35:29.140Z,16.14
2023-05-06T09:36:28.870Z,16.32
2023-05-06T09:37:28.903Z,16.48
2023-05-06T09:38:28.842Z,16.68
2023-05-06T09:39:28.849Z,16.99
2023-05-06T09:40:28.830Z,17.32
2023-05-06T09:41:28.817Z,17.58
2023-05-06T09:42:28.884Z,17.82
2023-05-06T09:43:28.821Z,18.16
2023-05-06T09:44:28.791Z,18.47
2023-05-06T09:45:28.803Z,18.59
2023-05-06T09:46:28.812Z,18.63
2023-05-06T09:47:28.880Z,18.69
2023-05-06T09:48:28.748Z,18.77
2023-05-06T09:49:28.734Z,18.89
2023-05-06T09:50:28.756Z,18.92
2023-05-06T09:51:28.781Z,18.86
2023-05-06T09:52:28.752Z,18.83
2023-05-06T09:53:28.823Z,18.79
2023-05-06T09:54:28.769Z,18.79
2023-05-06T09:55:28.825Z,18.82
2023-05-06T09:56:28.714Z,18.86
2023-05-06T09:57:28.684Z,18.96
2023-05-06T09:58:28.666Z,19.03
2023-05-06T09:59:28.705Z,19.10
2023-05-06T12:36:46.937Z,24.08
2023-05-06T12:37:47.946Z,23.53
2023-05-06T12:38:47.932Z,23.12
2023-05-06T12:39:47.962Z,22.82
2023-05-06T12:41:03.265Z,23.46
2023-05-06T12:42:04.263Z,22.97
2023-05-06T12:43:29.093Z,23.42
2023-05-06T12:44:30.014Z,22.97
2023-05-06T12:45:33.288Z,23.40
2023-05-06T12:46:58.154Z,23.21
2023-05-06T12:47:59.127Z,22.73
2023-05-06T12:48:59.053Z,22.44
2023-05-06T12:50:07.975Z,22.44
2023-05-06T12:50:59.033Z,22.67
2023-05-06T12:51:59.109Z,22.99
2023-05-06T12:52:59.024Z,23.26
2023-05-06T12:53:59.037Z,23.43
2023-05-06T12:54:59.031Z,23.56
2023-05-06T12:55:59.023Z,23.70
2023-05-06T12:56:59.011Z,23.82
2023-05-06T12:57:59.020Z,23.87
2023-05-06T12:58:58.993Z,23.85
2023-05-06T12:59:58.966Z,23.89
2023-05-06T13:00:59.027Z,23.96
2023-05-06T13:01:59.162Z,24.00
2023-05-06T13:02:59.050Z,24.04
2023-05-06T13:03:58.921Z,24.14
2023-05-06T13:04:58.939Z,24.31
2023-05-06T13:05:58.985Z,24.48
2023-05-06T13:06:58.941Z,24.49
2023-05-06T13:07:58.920Z,24.24
2023-05-06T13:08:58.880Z,23.80
2023-05-06T13:09:58.860Z,23.44
2023-05-06T13:10:58.863Z,23.35
2023-05-06T13:11:58.838Z,23.48
2023-05-06T13:12:58.889Z,23.73
2023-05-06T13:13:58.851Z,24.05
2023-05-06T13:14:58.848Z,24.39
2023-05-06T13:15:58.840Z,24.67
2023-05-06T13:16:59.176Z,24.84
2023-05-06T13:17:58.875Z,24.97
2023-05-06T13:18:59.284Z,25.11
2023-05-06T13:19:58.821Z,25.09
2023-05-06T13:20:58.781Z,24.88
2023-05-06T13:21:58.936Z,24.60
2023-05-06T13:22:58.794Z,24.24
2023-05-06T13:23:58.790Z,23.81
2023-05-06T13:24:58.784Z,23.38
2023-05-06T13:26:04.668Z,23.01
2023-05-06T13:26:58.729Z,22.75
2023-05-06T13:27:58.757Z,22.49
2023-05-06T13:28:58.790Z,22.23
2023-05-06T13:29:58.743Z,21.87
2023-05-06T13:30:58.711Z,21.44
2023-05-06T13:31:58.719Z,21.17
2023-05-06T13:32:58.768Z,21.07
2023-05-06T13:33:58.770Z,21.10
2023-05-06T13:34:59.213Z,21.08
2023-05-06T13:35:58.681Z,21.07
2023-05-06T13:36:58.703Z,21.07
2023-05-06T13:37:58.668Z,21.08
2023-05-06T13:38:59.003Z,21.15
2023-05-06T13:39:58.654Z,21.40
2023-05-06T13:40:58.630Z,21.62
2023-05-06T13:41:58.665Z,21.64
2023-05-06T13:42:58.613Z,21.70
2023-05-06T13:43:58.634Z,21.94
2023-05-06T13:44:58.637Z,22.27
2023-05-06T13:45:58.617Z,22.55
2023-05-06T13:46:58.658Z,22.77
2023-05-06T13:47:58.548Z,22.98
2023-05-06T13:48:58.495Z,23.18
2023-05-06T13:49:58.576Z,23.30
2023-05-06T13:50:58.714Z,23.42
2023-05-06T13:51:58.540Z,23.54
2023-05-06T13:52:58.548Z,23.60
2023-05-06T13:53:58.552Z,23.68
2023-05-06T13:54:58.487Z,23.79
2023-05-06T13:55:58.484Z,23.87
2023-05-06T13:56:58.435Z,23.90
2023-05-06T13:57:58.561Z,23.93
2023-05-06T13:58:58.390Z,23.94
2023-05-06T13:59:58.423Z,24.00
2023-05-06T14:00:58.392Z,24.03
2023-05-06T14:01:58.377Z,23.92
2023-05-06T14:02:58.411Z,23.72
2023-05-06T14:03:58.392Z,23.61
2023-05-06T14:04:58.397Z,23.77
2023-05-06T14:05:58.608Z,23.99
2023-05-06T14:06:58.359Z,24.09
2023-05-06T14:07:58.349Z,23.99
2023-05-06T14:08:58.609Z,23.72
2023-05-06T14:09:58.709Z,23.42
2023-05-06T14:10:58.459Z,23.08
2023-05-06T14:11:58.577Z,22.68
2023-05-06T14:12:58.391Z,22.36
2023-05-06T14:13:58.250Z,22.14
2023-05-06T14:14:58.236Z,22.04
2023-05-06T14:15:58.245Z,22.02
2023-05-06T14:16:58.242Z,22.04
2023-05-06T14:17:58.230Z,22.10
2023-05-06T14:18:58.191Z,22.19
2023-05-06T14:19:58.178Z,22.25
2023-05-06T14:20:58.162Z,22.15
2023-05-06T14:21:58.163Z,21.99
2023-05-06T14:22:58.192Z,21.93
2023-05-06T14:23:58.141Z,21.94
2023-05-06T14:24:58.132Z,21.96
2023-05-06T14:25:58.136Z,21.97
2023-05-06T14:26:58.154Z,22.03
2023-05-06T14:27:58.190Z,22.08
2023-05-06T14:28:58.108Z,22.10
2023-05-06T14:29:58.094Z,22.02
2023-05-06T14:30:58.069Z,21.85
2023-05-06T14:31:58.113Z,21.75
2023-05-06T14:32:58.118Z,21.79
2023-05-06T14:33:58.052Z,21.91
2023-05-06T14:34:58.035Z,21.96
2023-05-06T14:35:58.023Z,22.05
2023-05-06T14:36:58.018Z,22.27
2023-05-06T14:37:58.016Z,22.49
2023-05-06T14:38:57.991Z,22.66
2023-05-06T14:39:57.994Z,22.88
2023-05-06T14:40:59.446Z,23.17
2023-05-06T14:41:57.964Z,23.47
2023-05-06T14:42:57.958Z,23.77
2023-05-06T14:43:57.971Z,24.07
2023-05-06T14:44:58.685Z,24.29
2023-05-06T14:45:57.954Z,24.41
2023-05-06T14:46:57.936Z,24.51
2023-05-06T14:47:57.954Z,24.59
2023-05-06T14:48:57.905Z,24.71
2023-05-06T14:49:57.885Z,24.85
2023-05-06T14:50:57.876Z,24.71
2023-05-06T14:51:58.521Z,24.20
2023-05-06T14:52:57.880Z,23.71
2023-05-06T14:53:57.845Z,23.47
2023-05-06T14:54:57.843Z,23.41
2023-05-06T14:55:57.832Z,23.45
2023-05-06T14:56:57.828Z,23.45
2023-05-06T14:57:57.816Z,23.41
2023-05-06T14:58:57.792Z,23.40
2023-05-06T14:59:57.777Z,23.40
2023-05-06T15:00:57.838Z,23.46
2023-05-06T15:01:57.760Z,23.53
2023-05-06T15:02:57.944Z,23.53
2023-05-06T15:03:57.776Z,23.46
2023-05-06T15:04:57.769Z,23.42
2023-05-06T15:05:57.857Z,23.46
2023-05-06T15:06:57.739Z,23.55
2023-05-06T15:07:57.720Z,23.63
2023-05-06T15:08:57.695Z,23.66
2023-05-06T15:09:58.069Z,23.58
2023-05-06T15:10:57.690Z,23.38
2023-05-06T15:11:57.672Z,23.16
2023-05-06T15:12:57.704Z,23.02
2023-05-06T15:13:57.676Z,22.99
2023-05-06T15:14:57.664Z,22.97
2023-05-06T15:15:57.622Z,22.97
2023-05-06T15:16:57.723Z,22.96
2023-05-06T15:17:57.738Z,22.95
2023-05-06T15:18:57.759Z,22.96
2023-05-06T15:19:57.621Z,22.98
2023-05-06T15:20:57.678Z,23.05
2023-05-06T15:21:57.820Z,23.17
2023-05-06T15:22:57.595Z,23.28
2023-05-06T15:23:57.598Z,23.36
2023-05-06T15:24:57.582Z,23.42
2023-05-06T15:25:57.605Z,23.52
2023-05-06T15:26:57.551Z,23.66
2023-05-06T15:27:57.560Z,23.75
2023-05-06T15:28:57.589Z,23.84
2023-05-06T15:29:57.721Z,23.96
2023-05-06T15:30:57.555Z,23.99
2023-05-06T15:31:57.524Z,23.90
2023-05-06T15:32:57.600Z,23.79
2023-05-06T15:33:59.587Z,23.69
2023-05-06T15:34:57.487Z,23.71